createdAt,value
2023-04-07T00:00:38.251Z,8.4
2023-04-07T00:15:39.622Z,8
2023-04-07T00:30:39.292Z,10
2023-04-07T00:45:40.228Z,10.4
2023-04-07T01:00:40.545Z,7.8
2023-04-07T01:01:32.680Z,6.7
2023-04-07T01:15:40.988Z,7.2
2023-04-07T01:30:41.895Z,8.4
2023-04-07T01:45:42.219Z,11.2
2023-04-07T02:00:42.632Z,8.7
2023-04-07T02:15:43.356Z,10.4
2023-04-07T02:30:44.122Z,8.9
2023-04-07T02:45:44.848Z,9.8
2023-04-07T03:00:45.048Z,11.3
2023-04-07T03:15:45.444Z,7.7
2023-04-07T03:30:45.985Z,8.2
2023-04-07T03:45:46.741Z,7.5
2023-04-07T04:00:46.774Z,8.2
2023-04-07T04:15:47.893Z,10.2
2023-04-07T04:30:47.326Z,7.4
2023-04-07T04:43:50.517Z,7.5
2023-04-07T04:58:50.416Z,12
2023-04-07T05:13:51.673Z,9.5
2023-04-07T05:28:51.649Z,8.6
2023-04-07T05:43:52.266Z,12.1
2023-04-07T06:13:53.092Z,12.2
2023-04-07T06:28:53.740Z,8.1
2023-04-07T06:43:54.334Z,12
2023-04-07T06:58:54.297Z,8.4
2023-04-07T07:13:55.118Z,10.8
2023-04-07T07:28:56.868Z,6.9
2023-04-07T07:43:56.360Z,6.2
2023-04-07T07:58:58.544Z,5.8
2023-04-07T08:13:57.594Z,7.5
2023-04-07T08:28:58.199Z,5.7
2023-04-07T08:43:57.814Z,5.7
2023-04-07T08:58:58.880Z,6.7
2023-04-07T09:13:58.763Z,9
2023-04-07T09:28:59.374Z,4.1
2023-04-07T09:44:00.381Z,3.4
2023-04-07T09:59:01.080Z,4.7
2023-04-07T10:14:01.211Z,5.1
2023-04-07T10:29:02.324Z,4.6
2023-04-07T10:44:03.687Z,4.1
2023-04-07T10:59:02.959Z,7.1
2023-04-07T11:14:02.911Z,3.4
2023-04-07T11:29:03.950Z,15.3
2023-04-07T11:44:04.677Z,4
2023-04-07T11:59:05.254Z,4.9
2023-04-07T12:14:06.759Z,5
2023-04-07T12:29:05.606Z,5.5
2023-04-07T12:44:07.730Z,5.9
2023-04-07T12:59:07.306Z,5.4
2023-04-07T13:14:07.518Z,6.2
2023-04-07T13:29:08.291Z,6.2
2023-04-07T13:44:08.738Z,4.8
2023-04-07T13:59:09.174Z,5.4
2023-04-07T14:14:10.162Z,4.4
2023-04-07T14:29:09.836Z,6.3
2023-04-07T14:44:10.347Z,3.3
2023-04-07T14:59:11.162Z,4.6
2023-04-07T15:14:11.241Z,5
2023-04-07T15:29:13.690Z,8.7
2023-04-07T15:44:13.153Z,7
2023-04-07T15:59:13.862Z,6.9
2023-04-07T16:14:18.775Z,6.4
2023-04-07T16:29:14.515Z,8.5
2023-04-07T16:44:15.956Z,15
2023-04-07T16:59:15.517Z,10.6
2023-04-07T17:14:16.287Z,9.1
2023-04-07T17:29:17.033Z,10
2023-04-07T17:44:17.473Z,10.7
2023-04-07T17:59:18.011Z,8.7
2023-04-07T18:14:18.912Z,8
2023-04-07T18:29:18.844Z,7.5
2023-04-07T18:44:19.822Z,8.2
2023-04-07T18:59:20.366Z,9.7
2023-04-07T19:14:19.541Z,10.5
2023-04-07T19:29:20.494Z,7
2023-04-07T19:44:21.185Z,4.5
2023-04-07T19:59:22.640Z,6.1
2023-04-07T20:14:22.316Z,4.1
2023-04-07T20:29:22.528Z,4.5
2023-04-07T20:44:23.359Z,5.1
2023-04-07T20:59:23.293Z,4.1
2023-04-07T21:14:24.961Z,4.8
2023-04-07T21:29:25.660Z,5.5
2023-04-07T21:44:26.592Z,6.7
2023-04-07T21:59:26.438Z,8.6
2023-04-07T22:00:44.488Z,8.8
2023-04-07T22:15:40.278Z,10.2
2023-04-07T22:30:41.603Z,10.4
2023-04-07T22:45:40.646Z,11.4
2023-04-07T23:00:42.228Z,13.4
2023-04-07T23:15:42.057Z,16
2023-04-07T23:30:42.923Z,15.7
2023-04-07T23:45:41.362Z,16.9
